Latest Weather Observations for Creal Reef

IDQ60801

Issued at 11:32 am EST Thursday 28 May 2015 (issued every 30 minutes, with the page automatically refreshed every 10 minutes)

About weather observations | Map of weather stations | Latest weather observations for QLD | Other Formats
Station Details ID: 200736 Name: CREAL REEF Lat: -20.53 Lon: 150.38 Height: 1.7 m
Data from the previous 72 hours. | See also: Recent months for locations in Queensland
Date/Time
EST
Temp
°C
App
Temp
°C
Dew
Point
Rel
Hum
%
Delta-T
°C
Wind Press
QNH
hPa
Press
MSL
hPa
Rain
since 9 am
mm
Dir
 
Spd
km/h
Gust
km/h
Spd
kts
Gust
kts
28/11:30am 24.2 - - - - ESE 32 39 17 21 1019.8 - -
28/11:20am 24.0 - - - - ESE 30 32 16 17 1019.8 1019.7 -
28/11:00am 23.9 - - - - ESE 30 35 16 19 1019.8 - -
28/10:30am 24.1 - - - - ESE 32 35 17 19 1020.2 - -
28/10:20am 24.1 - - - - ESE 33 - 18 - - 1020.1 -
28/10:00am 24.1 - - - - ESE 32 35 17 19 1020.4 - -
28/09:30am 24.0 - - - - E 37 43 20 23 1020.7 - -
28/09:20am 23.8 - - - - E 35 - 19 - - 1020.7 -
28/09:00am 24.1 - - - - ESE 32 35 17 19 1020.8 - -
28/08:30am 24.1 - - - - ESE 33 39 18 21 1020.5 - -
28/08:20am 23.9 - - - - ESE 32 - 17 - - 1020.3 -
28/08:00am 23.8 - - - - ESE 33 37 18 20 1020.2 - -
28/07:30am 22.9 - - - - ESE 37 43 20 23 1019.9 - -
28/07:20am 23.0 - - - - E 39 - 21 - - 1019.6 -
28/07:00am 23.6 - - - - ESE 35 41 19 22 1019.6 - -
28/06:30am 23.7 - - - - ESE 35 41 19 22 1019.2 - -
28/06:20am 23.6 - - - - E 35 - 19 - - 1018.9 -
28/06:00am 22.9 - - - - E 37 44 20 24 1018.7 - -
28/05:30am 23.4 - - - - E 35 41 19 22 1018.6 - -
28/05:20am 24.0 - - - - ESE 35 - 19 - - 1018.3 -
28/05:00am 23.9 - - - - ESE 33 39 18 21 1018.2 - -
28/04:30am 23.8 - - - - ESE 32 39 17 21 1018.2 - -
28/04:20am 23.7 - - - - ESE 35 - 19 - - 1018.1 -
28/04:00am 22.7 - - - - ESE 37 46 20 25 1018.4 - -
28/03:30am 23.9 - - - - ESE 33 41 18 22 1018.3 - -
28/03:20am 23.9 - - - - ESE 35 - 19 - - 1018.2 -
28/03:00am 23.9 - - - - ESE 35 43 19 23 1018.4 - -
28/02:30am 23.9 - - - - ESE 32 39 17 21 1018.2 - -
28/02:20am 23.9 - - - - ESE 32 - 17 - - 1018.1 -
28/02:00am 23.9 - - - - ESE 33 35 18 19 1018.3 - -
28/01:30am 23.7 - - - - ESE 32 37 17 20 1018.2 - -
28/01:20am 23.8 - - - - ESE 30 - 16 - - 1018.2 -
28/01:00am 23.5 - - - - ESE 35 43 19 23 1018.6 - -
28/12:30am 23.8 - - - - ESE 33 37 18 20 1018.9 - -
28/12:20am 23.7 - - - - ESE 33 - 18 - - 1018.8 -
28/12:00am 23.7 - - - - ESE 32 35 17 19 1018.9 - -
 
Date/Time
EST
Temp
°C
App
Temp
°C
Dew
Point
Rel
Hum
%
Delta-T
°C
Wind Press
QNH
hPa
Press
MSL
hPa
Rain
since 9 am
mm
Dir
 
Spd
km/h
Gust
km/h
Spd
kts
Gust
kts
27/11:30pm 23.7 - - - - ESE 32 37 17 20 1019.0 - -
27/11:20pm 23.6 - - - - ESE 32 - 17 - - 1018.9 -
27/11:00pm 23.8 - - - - ESE 33 39 18 21 1019.2 - -
27/10:30pm 23.8 - - - - ESE 32 35 17 19 1019.5 - -
27/10:20pm 23.9 - - - - ESE 32 - 17 - - 1019.4 -
27/10:00pm 23.7 - - - - SE 30 35 16 19 1019.7 - -
27/09:30pm 23.7 - - - - ESE 30 33 16 18 1019.7 - -
27/09:20pm 23.7 - - - - ESE 32 - 17 - - 1019.6 -
27/09:00pm 23.8 - - - - ESE 32 35 17 19 1019.9 - -
27/08:30pm 23.9 - - - - SE 33 39 18 21 1020.0 - -
27/08:20pm 23.8 - - - - SE 33 - 18 - - 1019.9 -
27/08:00pm 23.9 - - - - SE 32 37 17 20 1019.7 - -
27/07:30pm 23.8 - - - - SE 33 37 18 20 1019.6 - -
27/07:20pm 23.7 - - - - SSE 28 - 15 - - 1019.3 -
27/07:00pm 22.3 - - - - SSE 32 41 17 22 1019.3 - -
27/06:30pm 23.4 - - - - ESE 32 41 17 22 1019.1 - -
27/06:20pm 22.7 - - - - ESE 37 - 20 - - 1019.0 -
27/06:00pm 23.4 - - - - SE 33 41 18 22 1019.0 - -
27/05:30pm 23.7 - - - - SE 33 37 18 20 1018.7 - -
27/05:20pm 23.7 - - - - SE 32 - 17 - - 1018.5 -
27/05:00pm 23.7 - - - - SE 32 37 17 20 1018.5 - -
27/04:30pm 23.8 - - - - SE 33 39 18 21 1018.3 - -
27/04:20pm 23.7 - - - - SE 33 - 18 - - 1018.1 -
27/04:00pm 23.7 - - - - SE 37 43 20 23 1018.1 - -
27/03:30pm 23.9 - - - - SE 37 43 20 23 1017.8 - -
27/03:20pm 23.9 - - - - SE 37 - 20 - - 1017.6 -
27/03:00pm 23.9 - - - - SE 37 43 20 23 1017.7 - -
27/02:30pm 24.1 - - - - SE 35 41 19 22 1017.7 - -
27/02:20pm 24.0 - - - - SE 33 - 18 - - 1017.6 -
27/02:00pm 24.0 - - - - SE 35 41 19 22 1017.9 - -
27/01:30pm 24.1 - - - - SE 35 41 19 22 1018.0 - -
27/01:20pm 24.1 - - - - SE 35 - 19 - - 1017.9 -
27/01:00pm 24.0 - - - - SE 35 39 19 21 1018.3 - -
27/12:30pm 24.1 - - - - SE 33 41 18 22 1018.8 - -
27/12:20pm 24.2 - - - - SE 33 - 18 - - 1019.0 -
27/12:00pm 24.1 - - - - SE 33 39 18 21 1019.4 - -
27/11:30am 24.1 - - - - SE 32 37 17 20 1019.8 - -
27/11:20am 24.1 - - - - SE 32 - 17 - - 1019.8 -
27/11:00am 24.0 - - - - SE 32 37 17 20 1020.1 - -
27/10:30am 24.0 - - - - SE 33 37 18 20 1020.5 - -
27/10:20am 24.0 - - - - SE 32 - 17 - - 1020.5 -
27/10:00am 24.2 - - - - SE 33 37 18 20 1020.8 - -
27/09:30am 24.1 - - - - SE 28 33 15 18 1020.9 - -
27/09:20am 24.0 - - - - SE 30 - 16 - - 1020.8 -
27/09:00am 24.0 - - - - SE 32 35 17 19 1020.8 - -
27/08:30am 23.9 - - - - SE 32 35 17 19 1020.6 - -
27/08:20am 23.8 - - - - SE 30 - 16 - - 1020.4 -
27/08:00am 23.8 - - - - SE 30 33 16 18 1020.4 - -
27/07:30am 23.6 - - - - SE 30 37 16 20 1020.1 - -
27/07:20am 23.6 - - - - SE 30 - 16 - - 1019.9 -
27/07:00am 23.6 - - - - SE 28 35 15 19 1020.0 - -
27/06:30am 23.5 - - - - SE 30 33 16 18 1019.6 - -
27/06:20am 23.6 - - - - SE 32 - 17 - - 1019.4 -
27/06:00am 23.5 - - - - SE 30 35 16 19 1019.2 - -
27/05:30am 23.4 - - - - SE 32 37 17 20 1018.8 - -
27/05:20am 23.4 - - - - SE 32 - 17 - - 1018.7 -
27/05:00am 23.5 - - - - SE 33 39 18 21 1018.8 - -
27/04:30am 23.5 - - - - SE 33 39 18 21 1018.7 - -
27/04:20am 23.5 - - - - SE 33 - 18 - - 1018.6 -
27/04:00am 23.6 - - - - SE 32 39 17 21 1018.7 - -
27/03:30am 23.5 - - - - SE 33 39 18 21 1018.9 - -
27/03:20am 23.7 - - - - SE 33 - 18 - - 1018.7 -
27/03:00am 23.5 - - - - SE 35 39 19 21 1018.9 - -
27/02:30am 23.6 - - - - ESE 37 41 20 22 1018.8 - -
27/02:20am 23.6 - - - - ESE 37 - 20 - - 1018.8 -
27/02:00am 23.6 - - - - ESE 37 43 20 23 1018.9 - -
27/01:30am 23.7 - - - - SE 35 41 19 22 1019.2 - -
27/01:20am 23.7 - - - - ESE 35 - 19 - - 1019.4 -
27/01:00am 23.8 - - - - SE 37 43 20 23 1019.8 - -
27/12:30am 23.6 - - - - SE 39 44 21 24 1020.1 - -
27/12:20am 23.5 - - - - SE 41 - 22 - - 1020.0 -
27/12:00am 23.4 - - - - ESE 41 46 22 25 1020.3 - -
 
Date/Time
EST
Temp
°C
App
Temp
°C
Dew
Point
Rel
Hum
%
Delta-T
°C
Wind Press
QNH
hPa
Press
MSL
hPa
Rain
since 9 am
mm
Dir
 
Spd
km/h
Gust
km/h
Spd
kts
Gust
kts
26/11:30pm 23.5 - - - - SE 39 48 21 26 1020.5 - -
26/11:20pm 23.4 - - - - SE 41 - 22 - - 1020.4 -
26/11:00pm 23.4 - - - - ESE 41 48 22 26 1020.6 - -
26/10:30pm 23.6 - - - - ESE 39 44 21 24 1020.6 - -
26/10:20pm 23.6 - - - - SE 41 - 22 - - 1020.8 -
26/10:00pm 23.6 - - - - ESE 43 48 23 26 1020.9 - -
26/09:30pm 23.7 - - - - SE 41 46 22 25 1021.1 - -
26/09:20pm 23.9 - - - - SE 39 - 21 - - 1021.0 -
26/09:00pm 23.9 - - - - SE 41 46 22 25 1021.0 - -
26/08:30pm 23.6 - - - - SE 35 41 19 22 1021.1 - -
26/08:20pm 23.6 - - - - SE 35 - 19 - - 1021.0 -
26/08:00pm 23.7 - - - - SE 37 43 20 23 1021.2 - -
26/07:30pm 23.4 - - - - ESE 39 46 21 25 1021.0 - -
26/07:20pm 23.1 - - - - SE 46 48 25 26 1020.9 1020.8 -
26/07:00pm 22.7 - - - - SSE 37 46 20 25 1020.7 - -
26/06:58pm 22.9 - - - - SSE 37 46 20 25 1020.7 - -
26/06:30pm 23.3 - - - - SE 35 41 19 22 1020.3 - -
26/06:20pm 23.2 - - - - SE 39 46 21 25 1020.3 1020.2 -
26/06:00pm 23.2 - - - - E 44 50 24 27 1020.0 - -
26/05:30pm 22.0 - - - - E 39 44 21 24 1019.8 - -
26/05:28pm 22.0 - - - - E 37 44 20 24 1019.8 - -
26/05:20pm 22.4 - - - - E 32 - 17 - - 1019.6 -
26/05:00pm 23.6 - - - - SE 33 39 18 21 1019.6 - -
26/04:30pm 23.0 - - - - E 28 43 15 23 1019.6 - -
26/04:20pm 23.1 - - - - SE 30 - 16 - - 1019.5 -
26/04:00pm 23.2 - - - - SE 33 39 18 21 1019.4 - -
26/03:30pm 22.8 - - - - ESE 33 44 18 24 1019.4 - -
26/03:20pm 22.6 - - - - E 35 - 19 - - 1019.4 -
26/03:00pm 23.3 - - - - ESE 39 44 21 24 1019.7 - -
26/02:30pm 23.3 - - - - ESE 37 41 20 22 1019.9 - -
26/02:20pm 23.2 - - - - ESE 35 - 19 - - 1019.9 -
26/02:00pm 23.4 - - - - ESE 35 41 19 22 1020.2 - -
26/01:30pm 23.4 - - - - ESE 37 43 20 23 1020.5 - -
26/01:20pm 23.2 - - - - ESE 39 - 21 - - 1020.4 -
26/01:00pm 23.3 - - - - ESE 39 48 21 26 1020.8 - -
26/12:30pm 23.3 - - - - ESE 41 48 22 26 1021.1 - -
26/12:20pm 23.4 - - - - ESE 43 - 23 - - 1021.2 -
26/12:00pm 23.5 - - - - ESE 41 48 22 26 1021.4 - -
26/11:30am 23.6 - - - - ESE 39 44 21 24 1021.6 - -
26/11:20am 23.6 - - - - ESE 41 - 22 - - 1021.7 -
26/11:00am 23.5 - - - - ESE 43 48 23 26 1022.0 - -
26/10:30am 23.8 - - - - ESE 37 43 20 23 1022.5 - -
26/10:20am 24.1 - - - - SE 35 - 19 - - 1022.6 -
26/10:00am 23.9 - - - - SE 35 39 19 21 1022.9 - -
26/09:30am 23.4 - - - - ESE 32 35 17 19 1023.0 - -
26/09:20am 23.3 - - - - ESE 30 - 16 - - 1022.9 -
26/09:00am 23.1 - - - - ESE 32 35 17 19 1023.1 - -
26/08:30am 23.1 - - - - ESE 30 35 16 19 1023.0 - -
26/08:20am 22.9 - - - - ESE 35 - 19 - - 1022.9 -
26/08:00am 22.9 - - - - E 32 39 17 21 1022.8 - -
26/07:30am 22.0 - - - - E 39 48 21 26 1022.7 - -
26/07:20am 23.6 - - - - ESE 35 - 19 - - 1022.6 -
26/07:00am 23.5 - - - - ESE 33 39 18 21 1022.6 - -
26/06:30am 21.8 - - - - E 43 50 23 27 1022.7 - -
26/06:20am 22.8 - - - - E 33 - 18 - - 1022.5 -
26/06:05am 22.7 - - - - E 37 43 20 23 1022.3 - -
26/06:00am 23.6 - - - - ESE 39 44 21 24 1022.4 - -
26/05:30am 23.3 - - - - ESE 39 46 21 25 1022.0 - -
26/05:20am 23.5 - - - - ESE 41 - 22 - - 1021.8 -
26/05:00am 23.6 - - - - ESE 39 44 21 24 1021.6 - -
26/04:30am 23.5 - - - - ESE 39 46 21 25 1021.4 - -
26/04:20am 23.3 - - - - ESE 41 - 22 - - 1021.3 -
26/04:00am 21.8 - - - - E 41 54 22 29 1021.6 - -
26/03:30am 23.6 - - - - ESE 41 46 22 25 1021.4 - -
26/03:20am 23.5 - - - - ESE 39 - 21 - - 1021.4 -
26/03:00am 23.5 - - - - ESE 39 44 21 24 1021.7 - -
26/02:30am 23.7 - - - - E 35 43 19 23 1021.7 - -
26/02:20am 23.8 - - - - E 37 - 20 - - 1021.7 -
26/02:00am 23.8 - - - - E 39 44 21 24 1021.9 - -
26/01:30am 23.8 - - - - E 37 44 20 24 1022.0 - -
26/01:20am 23.7 - - - - E 41 - 22 - - 1022.0 -
26/01:00am 23.9 - - - - E 39 46 21 25 1022.2 - -
26/12:30am 23.8 - - - - E 41 48 22 26 1022.5 - -
26/12:20am 23.8 - - - - E 41 - 22 - - 1022.5 -
26/12:00am 23.8 - - - - E 41 48 22 26 1022.7 - -
 
Date/Time
EST
Temp
°C
App
Temp
°C
Dew
Point
Rel
Hum
%
Delta-T
°C
Wind Press
QNH
hPa
Press
MSL
hPa
Rain
since 9 am
mm
Dir
 
Spd
km/h
Gust
km/h
Spd
kts
Gust
kts
25/11:30pm 23.9 - - - - E 41 46 22 25 1023.0 - -
25/11:20pm 23.9 - - - - E 39 - 21 - - 1022.9 -
25/11:00pm 23.9 - - - - E 43 46 23 25 1023.1 - -
25/10:30pm 24.0 - - - - E 43 48 23 26 1023.2 - -
25/10:20pm 24.0 - - - - E 39 - 21 - - 1023.2 -
25/10:18pm 24.0 - - - - ESE 39 46 21 25 1023.2 - -
25/10:00pm 22.5 - - - - SE 37 50 20 27 1023.3 - -
25/09:30pm 23.1 - - - - ESE 37 43 20 23 1023.2 - -
25/09:20pm 23.1 - - - - ESE 41 - 22 - - 1023.1 -
25/09:00pm 23.3 - - - - ESE 43 50 23 27 1023.0 - -
25/08:30pm 23.6 - - - - ESE 39 46 21 25 1022.8 - -
25/08:20pm 23.6 - - - - ESE 41 - 22 - - 1022.6 -
25/08:00pm 23.9 - - - - ESE 43 48 23 26 1022.7 - -
25/07:30pm 23.9 - - - - ESE 39 50 21 27 1022.7 - -
25/07:20pm 23.8 - - - - ESE 43 - 23 - - 1022.5 -
25/07:00pm 23.7 - - - - ESE 41 46 22 25 1022.3 - -
25/06:30pm 24.2 - - - - E 41 46 22 25 1022.1 - -
25/06:20pm 24.1 - - - - ESE 37 - 20 - - 1022.0 -
25/06:00pm 24.1 - - - - ESE 43 48 23 26 1021.9 - -
25/05:30pm 23.0 - - - - ESE 44 54 24 29 1021.9 - -
25/05:20pm 23.8 - - - - ESE 41 - 22 - - 1021.6 -
25/05:00pm 24.2 - - - - ESE 37 43 20 23 1021.7 - -
25/04:30pm 24.1 - - - - ESE 37 43 20 23 1021.7 - -
25/04:20pm 24.3 - - - - ESE 35 - 19 - - 1021.6 -
25/04:00pm 24.2 - - - - ESE 37 41 20 22 1021.8 - -
25/03:30pm 24.2 - - - - ESE 37 44 20 24 1021.7 - -
25/03:20pm 24.3 - - - - ESE 37 - 20 - - 1021.5 -
25/03:00pm 24.4 - - - - ESE 37 44 20 24 1021.6 - -
25/02:30pm 24.4 - - - - ESE 37 44 20 24 1021.6 - -
25/02:20pm 24.4 - - - - ESE 41 - 22 - - 1021.5 -
25/02:00pm 24.5 - - - - ESE 37 44 20 24 1021.6 - -
25/01:30pm 24.3 - - - - ESE 41 44 22 24 1021.5 - -
25/01:20pm 24.2 - - - - ESE 43 - 23 - - 1021.4 -
25/01:00pm 24.2 - - - - ESE 43 50 23 27 1021.7 - -
25/12:30pm 24.3 - - - - ESE 43 50 23 27 1022.2 - -
25/12:20pm 24.4 - - - - ESE 41 - 22 - - 1022.3 -
25/12:00pm 24.4 - - - - ESE 41 48 22 26 1022.8 - -

Other Formats:

Comma delimited format used in spreadsheet applications
http://www.bom.gov.au/fwo/IDQ60801/IDQ60801.94371.axf

JavaScript Object Notation format (JSON) in row-major order
http://www.bom.gov.au/fwo/IDQ60801/IDQ60801.94371.json